Time;durP1;ratioP1;P1;durP2;ratioP2;P2;SDS_P1;SDS_P2;PMS_P1;PMS_P2;Temp;Humidity;BMP_temperature;BMP_pressure;BME280_temperature;BME280_humidity;BME280_pressure;Samples;Min_cycle;Max_cycle;Signal;HPM_P1;HPM_P2
2024/01/25 00:01:29;;;;;;;26.17;4.22;;;7.50;99.90;;;;;;5010347;28;20033;-87
2024/01/25 00:03:54;;;;;;;30.35;4.65;;;8.10;99.90;;;;;;4991152;28;20037;-86
2024/01/25 00:06:21;;;;;;;31.95;5.35;;;7.30;99.90;;;;;;5002207;28;20041;-87
2024/01/25 00:08:46;;;;;;;30.67;5.13;;;8.00;99.90;;;;;;4989056;28;20481;-86
2024/01/25 00:11:12;;;;;;;30.60;4.88;;;7.30;99.90;;;;;;5001844;28;20100;-87
2024/01/25 00:13:38;;;;;;;24.17;4.75;;;7.80;99.90;;;;;;5028433;28;20068;-86
2024/01/25 00:16:04;;;;;;;27.25;4.50;;;8.00;99.90;;;;;;5006697;28;20091;-87
2024/01/25 00:18:30;;;;;;;29.40;5.10;;;7.20;99.90;;;;;;5008035;28;20438;-87
2024/01/25 00:20:56;;;;;;;29.35;4.75;;;7.20;99.90;;;;;;5012908;28;20088;-89
2024/01/25 00:23:22;;;;;;;29.30;5.13;;;7.30;99.90;;;;;;4981724;28;20069;-89
2024/01/25 00:25:47;;;;;;;30.23;5.25;;;7.80;99.90;;;;;;5000465;28;20386;-89
2024/01/25 00:28:13;;;;;;;30.35;5.38;;;7.00;99.90;;;;;;4994531;28;20037;-89
2024/01/25 00:30:39;;;;;;;24.38;4.50;;;7.00;99.90;;;;;;5017069;28;20107;-90
2024/01/25 00:33:05;;;;;;;34.25;5.05;;;7.00;99.90;;;;;;5000886;28;20030;-89
2024/01/25 00:35:31;;;;;;;25.90;4.55;;;7.50;99.90;;;;;;5017735;28;20045;-89
2024/01/25 00:37:57;;;;;;;27.63;4.65;;;6.90;99.90;;;;;;5027502;28;20042;-88
2024/01/25 00:40:23;;;;;;;27.15;5.18;;;6.80;99.90;;;;;;5013982;28;20493;-89
2024/01/25 00:42:53;;;;;;;27.58;5.35;;;6.80;99.90;;;;;;5000649;28;20095;-89
2024/01/25 00:45:23;;;;;;;26.20;4.55;;;6.80;99.90;;;;;;5004941;28;20037;-89
2024/01/25 00:47:50;;;;;;;26.58;4.38;;;6.80;99.90;;;;;;5001372;28;20045;-90
2024/01/25 00:50:23;;;;;;;23.92;4.35;;;6.70;99.90;;;;;;5007428;28;20041;-90
2024/01/25 00:52:50;;;;;;;27.17;4.35;;;6.70;99.90;;;;;;5013165;28;20042;-89
2024/01/25 00:55:16;;;;;;;30.67;5.20;;;6.70;99.90;;;;;;5000115;28;20072;-90
2024/01/25 00:57:42;;;;;;;31.08;5.70;;;6.70;99.90;;;;;;4983836;28;20076;-89
2024/01/25 01:00:08;;;;;;;34.00;6.38;;;6.60;99.90;;;;;;5003021;28;20473;-90
2024/01/25 01:02:38;;;;;;;26.83;4.97;;;6.60;99.90;;;;;;5027875;28;20033;-89
2024/01/25 01:05:05;;;;;;;31.95;4.90;;;6.70;99.90;;;;;;4983945;28;20563;-89
2024/01/25 01:07:31;;;;;;;30.55;5.65;;;6.60;99.90;;;;;;5009212;28;20037;-89
2024/01/25 01:09:56;;;;;;;26.20;3.97;;;6.70;99.90;;;;;;5001499;28;20459;-89
2024/01/25 01:12:22;;;;;;;29.95;5.25;;;7.20;99.90;;;;;;5034488;28;20481;-90
2024/01/25 01:14:48;;;;;;;32.55;4.72;;;6.80;99.90;;;;;;5037705;28;20040;-89
2024/01/25 01:17:13;;;;;;;26.92;4.90;;;7.30;99.90;;;;;;5024917;28;20026;-89
2024/01/25 01:19:39;;;;;;;24.52;4.63;;;6.90;99.90;;;;;;5005454;28;20203;-90
2024/01/25 01:22:05;;;;;;;32.22;4.32;;;7.10;99.90;;;;;;5019881;28;20038;-89
2024/01/25 01:24:30;;;;;;;27.23;4.60;;;7.40;99.90;;;;;;5006006;28;20030;-90
2024/01/25 01:26:56;;;;;;;24.42;5.03;;;7.50;99.90;;;;;;5001734;28;20152;-89
2024/01/25 01:29:22;;;;;;;31.92;5.45;;;7.20;99.90;;;;;;5045616;28;20090;-91
2024/01/25 01:31:47;;;;;;;24.30;4.20;;;7.30;99.90;;;;;;5014477;28;20513;-90
2024/01/25 01:34:13;;;;;;;25.70;3.85;;;7.00;99.90;;;;;;5024505;28;20029;-90
2024/01/25 01:36:39;;;;;;;28.15;5.28;;;7.30;99.90;;;;;;5010608;28;20091;-90
2024/01/25 01:39:06;;;;;;;29.98;5.30;;;6.60;99.90;;;;;;5002328;28;20069;-89
2024/01/25 01:41:32;;;;;;;20.38;4.03;;;7.00;99.90;;;;;;4996303;28;20044;-90
2024/01/25 01:43:57;;;;;;;25.98;4.20;;;7.00;99.90;;;;;;4984759;28;20128;-90
2024/01/25 01:46:39;;;;;;;32.75;5.60;;;6.60;99.90;;;;;;4998606;28;20032;-90
2024/01/25 01:49:07;;;;;;;25.25;4.35;;;6.80;99.90;;;;;;5007691;28;20161;-90
2024/01/25 01:51:34;;;;;;;30.25;4.80;;;6.80;99.90;;;;;;5009069;28;20047;-90
2024/01/25 01:54:02;;;;;;;28.33;5.22;;;6.90;99.90;;;;;;5021803;28;20393;-91
2024/01/25 01:56:28;;;;;;;31.05;4.80;;;7.20;99.90;;;;;;5002168;28;20132;-89
2024/01/25 01:58:57;;;;;;;31.70;4.20;;;7.10;99.90;;;;;;5006651;28;20030;-90
2024/01/25 02:01:24;;;;;;;29.80;5.35;;;6.90;99.90;;;;;;4999272;28;20038;-90
2024/01/25 02:03:50;;;;;;;27.67;4.50;;;6.60;99.90;;;;;;5006258;28;20126;-90
2024/01/25 02:06:16;;;;;;;29.17;5.57;;;6.90;99.90;;;;;;5010238;28;20571;-90
2024/01/25 02:08:41;;;;;;;29.63;4.93;;;7.10;99.90;;;;;;5015448;28;20060;-90
2024/01/25 02:11:08;;;;;;;27.70;4.95;;;6.40;99.90;;;;;;5001429;28;20107;-90
2024/01/25 02:13:34;;;;;;;23.48;3.80;;;6.40;99.90;;;;;;4999153;28;20037;-90
2024/01/25 02:16:00;;;;;;;29.70;5.13;;;6.40;99.90;;;;;;5027417;28;20071;-89
2024/01/25 02:18:26;;;;;;;28.45;5.25;;;7.00;99.90;;;;;;5002097;28;20046;-90
2024/01/25 02:20:52;;;;;;;33.30;5.38;;;6.90;99.90;;;;;;4983039;28;20045;-89
2024/01/25 02:23:18;;;;;;;29.27;4.50;;;7.00;99.90;;;;;;5003101;28;20056;-89
2024/01/25 02:25:43;;;;;;;28.55;4.45;;;6.90;99.90;;;;;;4998751;28;20049;-90
2024/01/25 02:28:09;;;;;;;26.73;5.07;;;7.10;99.90;;;;;;5000619;28;20052;-90
2024/01/25 02:30:35;;;;;;;29.20;5.18;;;6.20;99.90;;;;;;5010334;28;20041;-90
2024/01/25 02:33:00;;;;;;;22.60;4.15;;;6.60;99.90;;;;;;5007293;28;20036;-90
2024/01/25 02:35:27;;;;;;;23.40;4.10;;;6.90;99.90;;;;;;5023100;28;20025;-89
2024/01/25 02:37:52;;;;;;;34.72;6.05;;;6.90;99.90;;;;;;5025334;28;20036;-89
2024/01/25 02:40:18;;;;;;;33.38;5.75;;;6.70;99.90;;;;;;5025443;28;20098;-90
2024/01/25 02:42:44;;;;;;;24.80;4.45;;;6.10;99.90;;;;;;5016549;28;20493;-90
2024/01/25 02:45:10;;;;;;;23.17;4.68;;;6.20;99.90;;;;;;5012128;28;20044;-90
2024/01/25 02:47:35;;;;;;;28.77;4.55;;;6.00;99.90;;;;;;5006374;28;20096;-90
2024/01/25 02:50:01;;;;;;;31.20;4.88;;;6.80;99.90;;;;;;4993514;28;20045;-90
2024/01/25 02:52:26;;;;;;;30.08;5.18;;;6.80;99.90;;;;;;5023907;28;20039;-90
2024/01/25 02:54:52;;;;;;;29.33;5.72;;;6.50;99.90;;;;;;5022895;28;20095;-90
2024/01/25 02:57:18;;;;;;;24.60;4.85;;;6.60;99.90;;;;;;4999649;28;20519;-89
2024/01/25 02:59:44;;;;;;;32.83;5.40;;;6.90;99.90;;;;;;5001838;28;20377;-90
2024/01/25 03:02:09;;;;;;;34.65;5.28;;;6.40;99.90;;;;;;5019257;28;20092;-90
2024/01/25 03:04:35;;;;;;;34.75;5.90;;;6.80;99.90;;;;;;5002603;28;20033;-91
2024/01/25 03:07:01;;;;;;;27.52;4.97;;;6.00;99.90;;;;;;5016980;28;20041;-89
2024/01/25 03:09:27;;;;;;;36.08;5.65;;;6.20;99.90;;;;;;4996013;28;20072;-89
2024/01/25 03:11:53;;;;;;;35.28;6.05;;;6.70;99.90;;;;;;5025784;28;20041;-90
2024/01/25 03:14:19;;;;;;;28.83;4.78;;;6.70;99.90;;;;;;5005955;28;20412;-89
2024/01/25 03:16:44;;;;;;;34.55;5.55;;;6.70;99.90;;;;;;4993375;28;20124;-89
2024/01/25 03:19:11;;;;;;;30.17;5.55;;;6.40;99.90;;;;;;5014967;28;20095;-90
2024/01/25 03:21:37;;;;;;;35.38;5.80;;;6.60;99.90;;;;;;5000921;28;20072;-89
2024/01/25 03:24:02;;;;;;;27.98;5.25;;;6.30;99.90;;;;;;5003212;28;20044;-93
2024/01/25 03:26:28;;;;;;;37.67;5.88;;;5.70;99.90;;;;;;5024597;28;20041;-90
2024/01/25 03:28:54;;;;;;;23.95;4.72;;;6.20;99.90;;;;;;5008877;28;20029;-90
2024/01/25 03:31:20;;;;;;;32.72;5.22;;;5.60;99.90;;;;;;5013173;28;20116;-89
2024/01/25 03:33:45;;;;;;;30.95;4.72;;;6.60;99.90;;;;;;5003507;28;20091;-90
2024/01/25 03:36:15;;;;;;;29.40;4.97;;;6.30;99.90;;;;;;4998310;28;20077;-90
2024/01/25 03:38:41;;;;;;;31.13;5.10;;;6.70;99.90;;;;;;4999282;28;20079;-90
2024/01/25 03:41:07;;;;;;;31.25;5.30;;;6.10;99.90;;;;;;5007852;28;20041;-90
2024/01/25 03:43:32;;;;;;;30.63;5.05;;;5.50;99.90;;;;;;4992819;28;20040;-90
2024/01/25 03:45:58;;;;;;;33.90;6.18;;;6.20;99.90;;;;;;5001358;28;20033;-90
2024/01/25 03:48:24;;;;;;;30.40;5.35;;;6.50;99.90;;;;;;4998344;28;20119;-90
2024/01/25 03:50:49;;;;;;;34.03;4.75;;;6.20;99.90;;;;;;5019630;28;20042;-90
2024/01/25 03:53:15;;;;;;;33.10;4.97;;;6.50;99.90;;;;;;4996473;28;20045;-91
2024/01/25 03:55:41;;;;;;;36.92;5.57;;;6.60;99.90;;;;;;5004490;28;20087;-92
2024/01/25 03:58:07;;;;;;;32.95;4.85;;;6.20;99.90;;;;;;5006545;28;20040;-90
2024/01/25 04:00:33;;;;;;;34.05;5.63;;;5.50;99.90;;;;;;5000208;28;20569;-90
2024/01/25 04:02:59;;;;;;;41.13;5.85;;;6.30;99.90;;;;;;5020515;28;20125;-91
2024/01/25 04:05:26;;;;;;;27.88;5.45;;;6.50;99.90;;;;;;4999320;28;20044;-91
2024/01/25 04:07:52;;;;;;;29.67;5.85;;;6.50;99.90;;;;;;5003317;28;20037;-90
2024/01/25 04:10:17;;;;;;;34.60;5.78;;;5.90;99.90;;;;;;5008041;28;20562;-91
2024/01/25 04:12:43;;;;;;;28.17;4.20;;;6.20;99.90;;;;;;5020850;28;20033;-90
2024/01/25 04:15:09;;;;;;;29.42;5.38;;;6.10;99.90;;;;;;5014992;28;20083;-90
2024/01/25 04:17:35;;;;;;;29.48;4.57;;;5.20;99.90;;;;;;5009745;28;20116;-90
2024/01/25 04:20:00;;;;;;;34.53;4.63;;;6.30;99.90;;;;;;5008368;28;20120;-90
2024/01/25 04:22:26;;;;;;;26.05;5.07;;;5.10;99.90;;;;;;4997192;28;20520;-90
2024/01/25 04:24:52;;;;;;;26.20;4.80;;;5.60;99.90;;;;;;5005713;28;20040;-90
2024/01/25 04:27:17;;;;;;;34.10;5.38;;;6.50;99.90;;;;;;5024515;28;20037;-90
2024/01/25 04:29:43;;;;;;;25.88;4.18;;;6.00;99.90;;;;;;4997824;28;20098;-90
2024/01/25 04:32:09;;;;;;;32.67;4.78;;;5.70;99.90;;;;;;4999667;28;20100;-91
2024/01/25 04:34:35;;;;;;;28.58;4.68;;;6.20;99.90;;;;;;5025587;28;20182;-91
2024/01/25 04:37:01;;;;;;;26.48;5.45;;;5.50;99.90;;;;;;5037249;28;20492;-91
2024/01/25 04:39:27;;;;;;;27.80;5.60;;;5.70;99.90;;;;;;5021383;28;20026;-90
2024/01/25 04:41:53;;;;;;;34.35;4.38;;;5.80;99.90;;;;;;5003209;28;20037;-90
2024/01/25 04:44:19;;;;;;;34.72;4.95;;;5.40;99.90;;;;;;5009155;28;20048;-90
2024/01/25 04:46:44;;;;;;;29.95;4.30;;;5.50;99.90;;;;;;5031169;28;20037;-90
2024/01/25 04:49:10;;;;;;;38.35;4.72;;;6.20;99.90;;;;;;5003083;28;20057;-90
2024/01/25 04:51:36;;;;;;;25.10;3.92;;;6.20;99.90;;;;;;4981275;28;20049;-91
2024/01/25 04:54:02;;;;;;;36.10;5.95;;;5.10;99.90;;;;;;4995935;28;20092;-90
2024/01/25 04:56:28;;;;;;;36.55;6.18;;;4.80;99.90;;;;;;4998498;28;20468;-90
2024/01/25 04:58:54;;;;;;;30.52;4.18;;;5.10;99.90;;;;;;5008029;28;20068;-90
2024/01/25 05:01:20;;;;;;;27.55;5.05;;;5.70;99.90;;;;;;5016257;28;20069;-90
2024/01/25 05:03:45;;;;;;;32.92;5.13;;;5.60;99.90;;;;;;4993220;28;20060;-90
2024/01/25 05:06:11;;;;;;;24.25;4.05;;;5.80;99.90;;;;;;5033796;28;20079;-90
2024/01/25 05:08:36;;;;;;;32.92;5.43;;;5.60;99.90;;;;;;5041677;28;20098;-89
2024/01/25 05:11:02;;;;;;;26.73;4.95;;;5.70;99.90;;;;;;5049145;28;20072;-90
2024/01/25 05:13:28;;;;;;;33.75;5.40;;;5.80;99.90;;;;;;5031990;28;20033;-90
2024/01/25 05:15:54;;;;;;;26.80;3.95;;;5.80;99.90;;;;;;5014723;28;20401;-91
2024/01/25 05:18:20;;;;;;;30.58;6.32;;;5.20;99.90;;;;;;5018179;28;20037;-90
2024/01/25 05:20:45;;;;;;;29.52;5.10;;;5.10;99.90;;;;;;5005379;28;20390;-90
2024/01/25 05:23:11;;;;;;;33.13;4.95;;;5.70;99.90;;;;;;5006346;28;20044;-90
2024/01/25 05:25:37;;;;;;;30.55;4.90;;;5.80;99.90;;;;;;5012273;28;20167;-90
2024/01/25 05:28:04;;;;;;;33.22;5.13;;;5.40;99.90;;;;;;5006849;28;20046;-90
2024/01/25 05:30:30;;;;;;;35.13;5.35;;;4.50;99.90;;;;;;5018310;28;20041;-91
2024/01/25 05:32:55;;;;;;;30.73;4.93;;;4.70;99.90;;;;;;4985569;28;20037;-91
2024/01/25 05:35:21;;;;;;;27.73;5.15;;;5.40;99.90;;;;;;5011132;28;20077;-91
2024/01/25 05:37:47;;;;;;;32.13;4.90;;;5.60;99.90;;;;;;4999308;28;20038;-91
2024/01/25 05:40:12;;;;;;;29.27;4.80;;;5.50;99.90;;;;;;5006288;28;20033;-90
2024/01/25 05:42:40;;;;;;;37.38;4.28;;;4.40;99.90;;;;;;5019441;28;20409;-90
2024/01/25 05:45:06;;;;;;;28.92;4.65;;;5.50;99.90;;;;;;5000870;28;20052;-91
2024/01/25 05:47:32;;;;;;;31.02;4.57;;;4.30;99.90;;;;;;5029712;28;20048;-91
2024/01/25 05:49:57;;;;;;;22.38;4.18;;;5.30;99.90;;;;;;5002751;28;20041;-90
2024/01/25 05:52:24;;;;;;;27.05;3.97;;;4.90;99.90;;;;;;4991459;28;20463;-91
2024/01/25 05:54:52;;;;;;;34.50;4.60;;;5.30;99.90;;;;;;5007127;28;20037;-91
2024/01/25 05:57:19;;;;;;;28.60;5.18;;;5.50;99.90;;;;;;5040066;28;20508;-91
2024/01/25 05:59:44;;;;;;;27.08;4.13;;;5.30;99.90;;;;;;5036060;28;20084;-91
2024/01/25 06:02:10;;;;;;;30.92;4.47;;;5.40;99.90;;;;;;4996743;28;20136;-91
2024/01/25 06:04:36;;;;;;;22.83;4.82;;;5.00;99.90;;;;;;5008200;28;20036;-91
2024/01/25 06:07:02;;;;;;;32.30;5.05;;;5.20;99.90;;;;;;5011299;28;20037;-91
2024/01/25 06:09:28;;;;;;;30.65;4.68;;;4.10;99.90;;;;;;5008845;28;20510;-91
2024/01/25 06:11:54;;;;;;;26.90;4.20;;;5.40;99.90;;;;;;5014361;28;20075;-91
2024/01/25 06:14:20;;;;;;;25.38;3.90;;;4.10;99.90;;;;;;4996118;28;20507;-90
2024/01/25 06:16:45;;;;;;;36.38;5.55;;;5.20;99.90;;;;;;5021292;28;20043;-90
2024/01/25 06:19:11;;;;;;;28.73;4.60;;;5.30;99.90;;;;;;5019358;28;20497;-90
2024/01/25 06:21:37;;;;;;;29.70;4.57;;;5.10;99.90;;;;;;5016904;28;20041;-90
2024/01/25 06:24:06;;;;;;;28.95;5.00;;;4.50;99.90;;;;;;5004950;28;20042;-92
2024/01/25 06:26:32;;;;;;;37.40;4.53;;;3.90;99.90;;;;;;5019488;28;20515;-91
2024/01/25 06:28:57;;;;;;;32.92;4.53;;;4.30;99.90;;;;;;5003714;28;20033;-91
2024/01/25 06:31:24;;;;;;;29.60;5.55;;;4.80;99.90;;;;;;5021765;28;20443;-91
2024/01/25 06:33:52;;;;;;;22.85;5.18;;;5.20;99.90;;;;;;5021571;28;20117;-91
2024/01/25 06:36:18;;;;;;;29.65;5.22;;;5.00;99.90;;;;;;5008017;28;20037;-90
2024/01/25 06:38:44;;;;;;;34.75;5.20;;;5.10;99.90;;;;;;5006401;28;20033;-91
2024/01/25 06:41:10;;;;;;;33.83;5.20;;;5.10;99.90;;;;;;5006757;28;20120;-91
2024/01/25 06:43:35;;;;;;;39.17;5.55;;;5.00;99.90;;;;;;4999316;28;20091;-91
2024/01/25 06:46:01;;;;;;;26.85;4.80;;;4.70;99.90;;;;;;5012453;28;20041;-91
2024/01/25 06:48:27;;;;;;;39.08;5.95;;;4.70;99.90;;;;;;5009358;28;20048;-91
2024/01/25 06:50:53;;;;;;;35.88;5.65;;;5.10;99.90;;;;;;5014012;28;20037;-91
2024/01/25 06:53:20;;;;;;;32.95;5.90;;;5.10;99.90;;;;;;5012259;28;20039;-90
2024/01/25 06:55:46;;;;;;;34.13;4.93;;;4.80;99.90;;;;;;5019401;28;20041;-90
2024/01/25 06:58:13;;;;;;;30.35;4.55;;;4.90;99.90;;;;;;5031479;28;20040;-90
2024/01/25 07:00:38;;;;;;;29.92;5.10;;;5.10;99.90;;;;;;4982858;28;20069;-91
2024/01/25 07:03:05;;;;;;;37.55;5.10;;;4.60;99.90;;;;;;5006848;28;20069;-91
2024/01/25 07:05:33;;;;;;;30.45;4.95;;;4.70;99.90;;;;;;4999657;28;20045;-91
2024/01/25 07:07:59;;;;;;;35.63;5.57;;;4.20;99.90;;;;;;5007006;28;20489;-90
2024/01/25 07:10:25;;;;;;;34.55;5.10;;;5.10;99.90;;;;;;5024187;28;20044;-91
2024/01/25 07:12:51;;;;;;;39.30;6.80;;;4.90;99.90;;;;;;5021557;28;20112;-91
2024/01/25 07:15:18;;;;;;;38.83;6.10;;;4.50;99.90;;;;;;5010197;28;20043;-91
2024/01/25 07:17:43;;;;;;;36.83;5.88;;;4.80;99.90;;;;;;5027838;28;20032;-91
2024/01/25 07:20:09;;;;;;;36.63;6.30;;;5.00;99.90;;;;;;5015060;28;20038;-91
2024/01/25 07:22:35;;;;;;;36.58;6.28;;;3.70;99.90;;;;;;4998080;28;20086;-91
2024/01/25 07:25:01;;;;;;;27.23;5.13;;;4.80;99.90;;;;;;5024482;28;20037;-91
2024/01/25 07:27:27;;;;;;;37.22;5.35;;;4.30;99.90;;;;;;5003547;28;20040;-90
2024/01/25 07:29:53;;;;;;;32.22;6.20;;;3.70;99.90;;;;;;4998008;28;20421;-90
2024/01/25 07:32:19;;;;;;;32.65;4.78;;;4.50;99.90;;;;;;5002813;28;20034;-91
2024/01/25 07:34:45;;;;;;;34.15;4.95;;;4.70;99.90;;;;;;5006273;28;20036;-90
2024/01/25 07:37:12;;;;;;;34.47;6.35;;;5.00;99.90;;;;;;5000935;28;20042;-90
2024/01/25 07:39:37;;;;;;;34.25;5.18;;;3.70;99.90;;;;;;5012802;28;20041;-90
2024/01/25 07:42:03;;;;;;;34.30;5.45;;;3.80;99.90;;;;;;5012393;28;20111;-92
2024/01/25 07:44:29;;;;;;;42.17;5.45;;;3.70;99.90;;;;;;5000967;28;20507;-91
2024/01/25 07:46:55;;;;;;;39.75;5.43;;;5.10;99.90;;;;;;4997730;28;20041;-91
2024/01/25 07:49:21;;;;;;;35.78;6.18;;;4.60;99.90;;;;;;4995293;28;20052;-91
2024/01/25 07:51:46;;;;;;;37.47;5.70;;;4.50;99.90;;;;;;4997723;28;20099;-92
2024/01/25 07:54:13;;;;;;;38.45;5.53;;;4.80;99.90;;;;;;4997490;28;20038;-92
2024/01/25 07:56:39;;;;;;;32.75;6.82;;;4.70;99.90;;;;;;4997536;28;20038;-91
2024/01/25 07:59:04;;;;;;;35.15;5.38;;;5.20;99.90;;;;;;4998060;28;20060;-91
2024/01/25 08:01:30;;;;;;;32.78;5.97;;;4.30;99.90;;;;;;4997747;28;20041;-91
2024/01/25 08:03:56;;;;;;;42.10;5.63;;;4.30;99.90;;;;;;4981276;28;20543;-91
2024/01/25 08:06:22;;;;;;;36.22;4.90;;;5.30;99.90;;;;;;4994944;28;20041;-90
2024/01/25 08:08:48;;;;;;;36.78;4.88;;;5.00;99.90;;;;;;5025524;28;20131;-91
2024/01/25 08:11:18;;;;;;;32.95;5.68;;;5.10;99.90;;;;;;4992962;28;20416;-92
2024/01/25 08:13:44;;;;;;;34.13;5.75;;;4.60;99.90;;;;;;5001765;28;20037;-90
2024/01/25 08:16:13;;;;;;;36.40;5.43;;;5.40;99.90;;;;;;5010432;28;20044;-91
2024/01/25 08:18:40;;;;;;;29.50;5.25;;;3.30;99.90;;;;;;4983053;28;20037;-91
2024/01/25 08:21:06;;;;;;;45.38;5.43;;;5.40;99.90;;;;;;5018471;28;20560;-91
2024/01/25 08:23:31;;;;;;;33.92;5.97;;;4.00;99.90;;;;;;4985118;28;20129;-91
2024/01/25 08:25:57;;;;;;;41.88;6.10;;;4.00;99.90;;;;;;4982151;28;20128;-91
2024/01/25 08:28:23;;;;;;;32.53;4.82;;;5.10;99.90;;;;;;5015476;28;20463;-91
2024/01/25 08:30:49;;;;;;;36.80;6.50;;;5.10;99.90;;;;;;5017903;28;20048;-91
2024/01/25 08:33:15;;;;;;;32.92;5.78;;;4.80;99.90;;;;;;5001259;28;20037;-91
2024/01/25 08:35:40;;;;;;;44.47;5.50;;;5.50;99.90;;;;;;5013823;28;20071;-90
2024/01/25 08:38:07;;;;;;;24.35;5.70;;;4.20;99.90;;;;;;4999312;28;20056;-91
2024/01/25 08:40:33;;;;;;;38.97;6.50;;;5.10;99.90;;;;;;5031854;28;20037;-91
2024/01/25 08:42:59;;;;;;;38.72;6.20;;;4.20;99.90;;;;;;5018300;28;20033;-92
2024/01/25 08:45:25;;;;;;;32.10;5.78;;;5.60;99.90;;;;;;4993683;28;20064;-91
2024/01/25 08:47:52;;;;;;;33.33;6.82;;;5.00;99.90;;;;;;4992972;28;20041;-91
2024/01/25 08:50:18;;;;;;;36.72;6.03;;;5.30;99.90;;;;;;4999690;28;20045;-91
2024/01/25 08:52:44;;;;;;;39.88;6.50;;;5.30;99.90;;;;;;5013382;28;20033;-91
2024/01/25 08:55:10;;;;;;;31.60;4.90;;;4.50;99.90;;;;;;5029691;28;20036;-91
2024/01/25 08:57:36;;;;;;;41.80;5.97;;;5.60;99.90;;;;;;5022213;28;20034;-90
2024/01/25 09:00:08;;;;;;;43.83;6.63;;;5.50;99.90;;;;;;4996573;28;20044;-92
2024/01/25 09:02:34;;;;;;;31.33;5.22;;;4.50;99.90;;;;;;4996898;28;20065;-91
2024/01/25 09:05:00;;;;;;;37.28;5.80;;;5.30;99.90;;;;;;5008137;28;20084;-91
2024/01/25 09:07:25;;;;;;;33.38;5.97;;;5.50;99.90;;;;;;5001947;28;20030;-90
2024/01/25 09:09:51;;;;;;;30.58;5.38;;;4.60;99.90;;;;;;4992141;28;20042;-90
2024/01/25 09:12:17;;;;;;;40.38;6.40;;;5.30;99.90;;;;;;4997640;28;20033;-91
2024/01/25 09:14:43;;;;;;;28.60;5.30;;;4.70;99.90;;;;;;5006859;28;20045;-90
2024/01/25 09:17:09;;;;;;;38.67;5.93;;;5.60;99.90;;;;;;5003607;28;20038;-93
2024/01/25 09:19:35;;;;;;;31.25;5.22;;;5.80;99.90;;;;;;4997580;28;20038;-92
2024/01/25 09:22:04;;;;;;;41.40;6.72;;;4.80;99.90;;;;;;5014574;28;20449;-92
2024/01/25 09:24:31;;;;;;;30.30;5.55;;;5.90;99.90;;;;;;4998016;28;20049;-92
2024/01/25 09:26:58;;;;;;;32.60;5.45;;;5.80;99.90;;;;;;5012726;28;20049;-91
2024/01/25 09:29:24;;;;;;;30.98;6.53;;;5.60;99.90;;;;;;5002614;28;20042;-93
2024/01/25 09:31:50;;;;;;;34.15;6.70;;;5.00;99.90;;;;;;4998343;28;20034;-91
2024/01/25 09:34:16;;;;;;;32.22;6.35;;;6.30;99.90;;;;;;5005426;28;20139;-91
2024/01/25 09:36:42;;;;;;;38.15;6.28;;;5.40;99.90;;;;;;5016101;28;20141;-91
2024/01/25 09:39:08;;;;;;;34.40;5.32;;;5.90;99.90;;;;;;5016308;28;20612;-92
2024/01/25 09:41:34;;;;;;;37.40;7.32;;;6.30;99.90;;;;;;5014329;28;20037;-92
2024/01/25 09:44:00;;;;;;;40.38;6.57;;;5.90;99.90;;;;;;4989624;28;20045;-92
2024/01/25 09:46:27;;;;;;;39.85;6.60;;;6.00;99.90;;;;;;4980658;28;20045;-92
2024/01/25 09:48:52;;;;;;;34.67;6.32;;;6.00;99.90;;;;;;4980348;28;20096;-91
2024/01/25 09:51:18;;;;;;;34.20;6.57;;;6.30;99.90;;;;;;4983791;28;20455;-92
2024/01/25 09:53:48;;;;;;;30.90;5.35;;;6.40;99.90;;;;;;5014526;28;20041;-92
2024/01/25 09:56:17;;;;;;;38.63;6.55;;;5.70;99.90;;;;;;4980387;28;20580;-92
2024/01/25 09:58:45;;;;;;;38.50;6.35;;;6.10;99.90;;;;;;4988501;28;20037;-92
2024/01/25 10:01:15;;;;;;;40.60;6.25;;;5.60;99.90;;;;;;5016622;28;20072;-92
2024/01/25 10:03:46;;;;;;;35.50;6.43;;;6.20;99.90;;;;;;4990056;28;20525;-92
2024/01/25 10:06:13;;;;;;;43.33;7.68;;;6.70;99.90;;;;;;4988081;28;20122;-91
2024/01/25 10:08:39;;;;;;;41.28;7.03;;;6.60;99.90;;;;;;4995501;28;20480;-93
2024/01/25 10:11:06;;;;;;;37.58;6.88;;;6.30;99.90;;;;;;4980813;28;20133;-92
2024/01/25 10:13:31;;;;;;;43.28;7.35;;;6.20;99.90;;;;;;5015949;28;20040;-92
2024/01/25 10:15:58;;;;;;;37.78;6.78;;;6.10;99.90;;;;;;4999483;28;20033;-91
2024/01/25 10:18:25;;;;;;;37.03;6.05;;;6.60;99.90;;;;;;5012926;28;20493;-92
2024/01/25 10:20:55;;;;;;;37.47;6.05;;;5.90;99.90;;;;;;4999105;28;20048;-91
2024/01/25 10:23:22;;;;;;;41.17;6.82;;;5.60;99.90;;;;;;4979783;28;20045;-91
2024/01/25 10:25:48;;;;;;;33.03;6.18;;;6.60;99.90;;;;;;5009822;28;20500;-91
2024/01/25 10:28:13;;;;;;;32.75;5.65;;;6.60;99.90;;;;;;4996032;28;20044;-91
2024/01/25 10:30:39;;;;;;;29.50;6.30;;;5.70;99.90;;;;;;4979395;28;20517;-92
2024/01/25 10:33:06;;;;;;;32.20;5.65;;;5.80;99.90;;;;;;4979805;28;20030;-93
2024/01/25 10:35:32;;;;;;;28.90;6.28;;;6.50;99.90;;;;;;4994046;28;20041;-91
2024/01/25 10:37:58;;;;;;;37.72;6.15;;;6.20;99.90;;;;;;5007981;28;20417;-91
2024/01/25 10:40:24;;;;;;;35.33;6.80;;;6.40;99.90;;;;;;5015550;28;20095;-91
2024/01/25 10:42:50;;;;;;;40.90;7.22;;;6.90;99.90;;;;;;4997220;28;21130;-91
2024/01/25 10:45:16;;;;;;;39.05;6.63;;;6.80;99.90;;;;;;4995161;28;20037;-91
2024/01/25 10:47:44;;;;;;;29.75;5.78;;;6.90;99.90;;;;;;5013927;28;20576;-92
2024/01/25 10:50:13;;;;;;;37.70;6.03;;;7.40;99.90;;;;;;5001672;28;20541;-91
2024/01/25 10:52:40;;;;;;;36.83;7.13;;;6.60;99.90;;;;;;4998495;28;20378;-90
2024/01/25 10:55:08;;;;;;;31.33;6.22;;;7.30;99.90;;;;;;4999525;28;20037;-91
2024/01/25 10:57:42;;;;;;;36.45;7.07;;;6.80;99.90;;;;;;5011433;28;20555;-91
2024/01/25 11:00:10;;;;;;;42.30;7.18;;;6.90;99.90;;;;;;5020070;28;20116;-91
2024/01/25 11:02:37;;;;;;;34.20;6.03;;;6.90;99.90;;;;;;5010564;28;20120;-91
2024/01/25 11:05:17;;;;;;;38.67;7.88;;;7.70;99.90;;;;;;4998435;28;20669;-91
2024/01/25 11:07:50;;;;;;;31.00;6.43;;;7.50;99.90;;;;;;4984051;28;20088;-91
2024/01/25 11:10:21;;;;;;;32.95;6.20;;;7.30;99.90;;;;;;4998138;28;20540;-92
2024/01/25 11:12:52;;;;;;;31.27;6.47;;;7.40;99.90;;;;;;4998342;28;20520;-90
2024/01/25 11:15:21;;;;;;;33.28;6.60;;;6.70;99.90;;;;;;5005946;28;20033;-92
2024/01/25 11:17:56;;;;;;;37.63;5.93;;;6.60;99.90;;;;;;5001867;28;20041;-92
2024/01/25 11:20:24;;;;;;;35.85;7.07;;;7.00;99.90;;;;;;5004302;28;20120;-91
2024/01/25 11:23:02;;;;;;;27.90;6.68;;;7.00;99.90;;;;;;4995147;28;20042;-92
2024/01/25 11:25:32;;;;;;;31.85;6.85;;;6.90;99.90;;;;;;5010967;28;20077;-89
2024/01/25 11:28:00;;;;;;;31.48;6.45;;;7.30;99.90;;;;;;4994449;28;20049;-91
2024/01/25 11:30:27;;;;;;;42.42;7.88;;;7.50;99.90;;;;;;5013467;28;20123;-91
2024/01/25 11:32:53;;;;;;;31.50;6.68;;;7.80;99.90;;;;;;4979914;28;20041;-92
2024/01/25 11:35:19;;;;;;;30.35;6.75;;;7.10;99.90;;;;;;4995333;28;20042;-93
2024/01/25 11:37:46;;;;;;;32.08;6.13;;;7.90;99.90;;;;;;4979211;28;20524;-92
2024/01/25 11:40:13;;;;;;;35.13;6.55;;;7.10;99.90;;;;;;4984429;28;20037;-91
2024/01/25 11:42:43;;;;;;;34.42;6.88;;;7.60;99.90;;;;;;4993233;28;20045;-91
2024/01/25 11:45:11;;;;;;;24.85;6.40;;;7.60;99.90;;;;;;5008329;28;20076;-91
2024/01/25 11:47:38;;;;;;;40.10;7.82;;;6.80;99.90;;;;;;4992566;28;20029;-90
2024/01/25 11:50:05;;;;;;;28.67;6.38;;;6.80;99.90;;;;;;5022083;28;20497;-91
2024/01/25 11:52:33;;;;;;;36.90;7.57;;;6.90;99.90;;;;;;5021323;28;20404;-91
2024/01/25 11:55:07;;;;;;;28.60;6.43;;;7.80;99.90;;;;;;5000593;28;20115;-91
2024/01/25 11:57:38;;;;;;;34.63;6.85;;;7.00;99.90;;;;;;5006076;28;20141;-91
2024/01/25 12:00:09;;;;;;;34.50;6.63;;;7.10;99.90;;;;;;5021943;28;20080;-92
2024/01/25 12:02:36;;;;;;;34.05;6.43;;;7.20;99.90;;;;;;5011285;28;20508;-91
2024/01/25 12:05:03;;;;;;;32.13;6.50;;;7.40;99.90;;;;;;5003096;28;20388;-91
2024/01/25 12:07:33;;;;;;;29.42;6.80;;;7.30;99.90;;;;;;4995549;28;20064;-92
2024/01/25 12:10:04;;;;;;;36.85;6.32;;;7.30;99.90;;;;;;5019942;28;20405;-91
2024/01/25 12:12:30;;;;;;;30.00;5.47;;;7.40;99.90;;;;;;5020999;28;20493;-91
2024/01/25 12:15:00;;;;;;;28.50;6.78;;;7.80;99.90;;;;;;5004141;28;20065;-92
2024/01/25 12:17:29;;;;;;;31.83;7.25;;;8.00;99.90;;;;;;5020899;28;20090;-91
2024/01/25 12:19:59;;;;;;;31.77;6.55;;;7.40;99.90;;;;;;5018767;28;20520;-91
2024/01/25 12:22:29;;;;;;;31.10;6.90;;;7.40;99.90;;;;;;4991983;28;20047;-92
2024/01/25 12:24:58;;;;;;;27.45;6.88;;;8.20;99.90;;;;;;4999346;28;20045;-91
2024/01/25 12:27:26;;;;;;;30.40;6.38;;;8.00;99.90;;;;;;5003791;28;20432;-91
2024/01/25 12:29:55;;;;;;;27.98;6.53;;;8.00;99.90;;;;;;5016504;28;20038;-91
2024/01/25 12:32:21;;;;;;;28.02;6.78;;;7.60;99.90;;;;;;5002899;28;20101;-91
2024/01/25 12:34:57;;;;;;;24.95;6.13;;;7.60;99.90;;;;;;5020516;28;20514;-91
2024/01/25 12:37:23;;;;;;;23.00;6.07;;;7.70;99.90;;;;;;5020728;28;20175;-90
2024/01/25 12:39:52;;;;;;;35.75;7.47;;;8.80;99.90;;;;;;5013514;28;20112;-91
2024/01/25 12:42:21;;;;;;;28.60;5.18;;;7.80;99.90;;;;;;4998817;28;20072;-92
2024/01/25 12:44:48;;;;;;;26.90;5.30;;;8.70;99.90;;;;;;5012410;28;20048;-91